TAF KORD
AMD KORD 090900Z 0909/1012 14011G17KT P6SM BKN150 FM091500 15014G23KT P6SM BKN060 FM092000 20009KT P6SM BKN035 FM100000 24008KT P6SM BKN030 FM100400 29005KT P6SM BKN200=
METAR KORD
KORD 090951Z 16008KT 10SM OVC230 M01/M06 A2995 RMK AO2 SLP150 T10111056 ? ?
KORD 090851Z 14008KT 10SM OVC210 M02/M06 A2994 RMK AO2 PRESFR SLP146 T10171056 58031 ? ?
KORD 090751Z 15008KT 9SM OVC240 M02/M06 A2998 RMK AO2 SLP161 T10221056 ? ?
KORD 090651Z 15007KT 9SM OVC250 M02/M06 A3001 RMK AO2 SLP170 T10221061 ? ?
KORD 090551Z 17005KT 9SM BKN250 M02/M06 A3003 RMK AO2 SLP178 T10221061 11006 21033 400171039 56005 ? ?
WC KORD
WS KORD
WV KORD